sensor_id;sensor_type;location;lat;lon;timestamp;P1;durP1;ratioP1;P2;durP2;ratioP2
25437;SDS011;13364;49.084;9.978;2023-04-24T00:01:08;1.95;;;1.40;;
25437;SDS011;13364;49.084;9.978;2023-04-24T00:03:36;2.33;;;1.20;;
25437;SDS011;13364;49.084;9.978;2023-04-24T00:06:05;2.23;;;1.30;;
25437;SDS011;13364;49.084;9.978;2023-04-24T00:08:34;1.52;;;0.95;;
25437;SDS011;13364;49.084;9.978;2023-04-24T00:11:02;1.17;;;1.08;;
25437;SDS011;13364;49.084;9.978;2023-04-24T00:13:29;2.90;;;1.20;;
25437;SDS011;13364;49.084;9.978;2023-04-24T00:15:57;1.30;;;1.20;;
25437;SDS011;13364;49.084;9.978;2023-04-24T00:18:24;1.02;;;0.80;;
25437;SDS011;13364;49.084;9.978;2023-04-24T00:20:51;1.00;;;0.90;;
25437;SDS011;13364;49.084;9.978;2023-04-24T00:23:18;1.42;;;1.00;;
25437;SDS011;13364;49.084;9.978;2023-04-24T00:25:44;2.10;;;0.85;;
25437;SDS011;13364;49.084;9.978;2023-04-24T00:28:11;2.03;;;1.00;;
25437;SDS011;13364;49.084;9.978;2023-04-24T00:30:39;1.85;;;1.13;;
25437;SDS011;13364;49.084;9.978;2023-04-24T00:33:06;2.10;;;1.20;;
25437;SDS011;13364;49.084;9.978;2023-04-24T00:35:33;2.95;;;1.27;;
25437;SDS011;13364;49.084;9.978;2023-04-24T00:38:00;2.28;;;1.60;;
25437;SDS011;13364;49.084;9.978;2023-04-24T00:40:28;1.52;;;1.15;;
25437;SDS011;13364;49.084;9.978;2023-04-24T00:42:55;1.95;;;1.42;;
25437;SDS011;13364;49.084;9.978;2023-04-24T00:45:22;1.95;;;1.33;;
25437;SDS011;13364;49.084;9.978;2023-04-24T00:47:49;2.35;;;1.30;;
25437;SDS011;13364;49.084;9.978;2023-04-24T00:50:20;2.25;;;1.30;;
25437;SDS011;13364;49.084;9.978;2023-04-24T00:52:48;1.77;;;1.40;;
25437;SDS011;13364;49.084;9.978;2023-04-24T00:55:15;2.38;;;1.10;;
25437;SDS011;13364;49.084;9.978;2023-04-24T00:57:43;2.25;;;1.05;;
25437;SDS011;13364;49.084;9.978;2023-04-24T01:00:11;1.30;;;0.95;;
25437;SDS011;13364;49.084;9.978;2023-04-24T01:02:39;2.08;;;1.23;;
25437;SDS011;13364;49.084;9.978;2023-04-24T01:05:12;1.63;;;0.90;;
25437;SDS011;13364;49.084;9.978;2023-04-24T01:07:43;2.20;;;1.00;;
25437;SDS011;13364;49.084;9.978;2023-04-24T01:10:12;2.03;;;1.58;;
25437;SDS011;13364;49.084;9.978;2023-04-24T01:12:40;1.13;;;0.90;;
25437;SDS011;13364;49.084;9.978;2023-04-24T01:15:08;3.90;;;1.10;;
25437;SDS011;13364;49.084;9.978;2023-04-24T01:17:35;3.58;;;1.10;;
25437;SDS011;13364;49.084;9.978;2023-04-24T01:20:02;2.67;;;1.25;;
25437;SDS011;13364;49.084;9.978;2023-04-24T01:22:35;1.40;;;0.93;;
25437;SDS011;13364;49.084;9.978;2023-04-24T01:25:02;0.90;;;0.90;;
25437;SDS011;13364;49.084;9.978;2023-04-24T01:27:30;2.80;;;1.05;;
25437;SDS011;13364;49.084;9.978;2023-04-24T01:29:57;0.80;;;0.80;;
25437;SDS011;13364;49.084;9.978;2023-04-24T01:32:24;2.08;;;1.02;;
25437;SDS011;13364;49.084;9.978;2023-04-24T01:34:52;1.90;;;0.82;;
25437;SDS011;13364;49.084;9.978;2023-04-24T01:37:20;0.80;;;0.80;;
25437;SDS011;13364;49.084;9.978;2023-04-24T01:39:48;1.60;;;1.00;;
25437;SDS011;13364;49.084;9.978;2023-04-24T01:42:15;0.80;;;0.80;;
25437;SDS011;13364;49.084;9.978;2023-04-24T01:44:45;2.17;;;0.90;;
25437;SDS011;13364;49.084;9.978;2023-04-24T01:47:13;4.35;;;1.40;;
25437;SDS011;13364;49.084;9.978;2023-04-24T01:49:40;2.65;;;1.25;;
25437;SDS011;13364;49.084;9.978;2023-04-24T01:52:07;2.47;;;1.10;;
25437;SDS011;13364;49.084;9.978;2023-04-24T01:54:35;1.20;;;1.10;;
25437;SDS011;13364;49.084;9.978;2023-04-24T01:57:02;2.13;;;1.38;;
25437;SDS011;13364;49.084;9.978;2023-04-24T01:59:29;1.90;;;1.23;;
25437;SDS011;13364;49.084;9.978;2023-04-24T02:01:57;1.60;;;0.85;;
25437;SDS011;13364;49.084;9.978;2023-04-24T02:04:24;1.27;;;1.17;;
25437;SDS011;13364;49.084;9.978;2023-04-24T02:06:51;2.17;;;1.15;;
25437;SDS011;13364;49.084;9.978;2023-04-24T02:09:18;1.50;;;0.90;;
25437;SDS011;13364;49.084;9.978;2023-04-24T02:11:45;2.03;;;1.23;;
25437;SDS011;13364;49.084;9.978;2023-04-24T02:14:12;1.98;;;1.25;;
25437;SDS011;13364;49.084;9.978;2023-04-24T02:16:39;3.22;;;1.20;;
25437;SDS011;13364;49.084;9.978;2023-04-24T02:19:06;2.03;;;1.20;;
25437;SDS011;13364;49.084;9.978;2023-04-24T02:21:33;3.22;;;1.25;;
25437;SDS011;13364;49.084;9.978;2023-04-24T02:24:00;1.38;;;0.98;;
25437;SDS011;13364;49.084;9.978;2023-04-24T02:26:28;3.17;;;1.20;;
25437;SDS011;13364;49.084;9.978;2023-04-24T02:28:55;3.70;;;1.25;;
25437;SDS011;13364;49.084;9.978;2023-04-24T02:31:22;1.50;;;0.93;;
25437;SDS011;13364;49.084;9.978;2023-04-24T02:33:49;3.13;;;1.10;;
25437;SDS011;13364;49.084;9.978;2023-04-24T02:36:16;1.92;;;1.15;;
25437;SDS011;13364;49.084;9.978;2023-04-24T02:38:43;1.63;;;1.10;;
25437;SDS011;13364;49.084;9.978;2023-04-24T02:41:12;2.97;;;1.25;;
25437;SDS011;13364;49.084;9.978;2023-04-24T02:43:39;3.13;;;1.10;;
25437;SDS011;13364;49.084;9.978;2023-04-24T02:46:06;3.88;;;1.10;;
25437;SDS011;13364;49.084;9.978;2023-04-24T02:48:33;2.33;;;1.17;;
25437;SDS011;13364;49.084;9.978;2023-04-24T02:51:00;1.00;;;0.93;;
25437;SDS011;13364;49.084;9.978;2023-04-24T02:53:27;3.58;;;1.10;;
25437;SDS011;13364;49.084;9.978;2023-04-24T02:55:56;1.00;;;0.90;;
25437;SDS011;13364;49.084;9.978;2023-04-24T02:58:23;4.18;;;1.10;;
25437;SDS011;13364;49.084;9.978;2023-04-24T03:00:54;1.48;;;1.02;;
25437;SDS011;13364;49.084;9.978;2023-04-24T03:03:24;1.77;;;0.75;;
25437;SDS011;13364;49.084;9.978;2023-04-24T03:05:51;3.35;;;1.10;;
25437;SDS011;13364;49.084;9.978;2023-04-24T03:08:18;2.30;;;1.02;;
25437;SDS011;13364;49.084;9.978;2023-04-24T03:10:47;1.33;;;0.98;;
25437;SDS011;13364;49.084;9.978;2023-04-24T03:13:15;3.10;;;1.48;;
25437;SDS011;13364;49.084;9.978;2023-04-24T03:15:42;3.03;;;1.10;;
25437;SDS011;13364;49.084;9.978;2023-04-24T03:18:09;1.35;;;1.08;;
25437;SDS011;13364;49.084;9.978;2023-04-24T03:20:37;3.38;;;1.17;;
25437;SDS011;13364;49.084;9.978;2023-04-24T03:23:04;3.72;;;1.10;;
25437;SDS011;13364;49.084;9.978;2023-04-24T03:25:31;2.05;;;1.10;;
25437;SDS011;13364;49.084;9.978;2023-04-24T03:27:58;2.85;;;1.00;;
25437;SDS011;13364;49.084;9.978;2023-04-24T03:30:40;3.53;;;1.08;;
25437;SDS011;13364;49.084;9.978;2023-04-24T03:33:08;1.17;;;1.00;;
25437;SDS011;13364;49.084;9.978;2023-04-24T03:35:42;3.85;;;0.98;;
25437;SDS011;13364;49.084;9.978;2023-04-24T03:38:11;1.55;;;1.10;;
25437;SDS011;13364;49.084;9.978;2023-04-24T03:41:01;3.25;;;1.13;;
25437;SDS011;13364;49.084;9.978;2023-04-24T03:43:38;1.90;;;1.20;;
25437;SDS011;13364;49.084;9.978;2023-04-24T03:46:06;2.40;;;0.55;;
25437;SDS011;13364;49.084;9.978;2023-04-24T03:48:40;2.17;;;0.93;;
25437;SDS011;13364;49.084;9.978;2023-04-24T03:51:08;1.20;;;1.10;;
25437;SDS011;13364;49.084;9.978;2023-04-24T03:53:38;2.45;;;1.20;;
25437;SDS011;13364;49.084;9.978;2023-04-24T03:56:05;1.58;;;0.93;;
25437;SDS011;13364;49.084;9.978;2023-04-24T03:58:33;1.70;;;0.95;;
25437;SDS011;13364;49.084;9.978;2023-04-24T04:01:00;0.90;;;0.90;;
25437;SDS011;13364;49.084;9.978;2023-04-24T04:03:42;2.00;;;1.00;;
25437;SDS011;13364;49.084;9.978;2023-04-24T04:06:09;2.83;;;1.00;;
25437;SDS011;13364;49.084;9.978;2023-04-24T04:08:37;0.82;;;0.80;;
25437;SDS011;13364;49.084;9.978;2023-04-24T04:11:04;2.45;;;1.20;;
25437;SDS011;13364;49.084;9.978;2023-04-24T04:13:31;1.75;;;1.23;;
25437;SDS011;13364;49.084;9.978;2023-04-24T04:15:58;2.35;;;1.10;;
25437;SDS011;13364;49.084;9.978;2023-04-24T04:18:26;1.17;;;0.90;;
25437;SDS011;13364;49.084;9.978;2023-04-24T04:20:53;2.95;;;1.10;;
25437;SDS011;13364;49.084;9.978;2023-04-24T04:23:20;2.28;;;1.15;;
25437;SDS011;13364;49.084;9.978;2023-04-24T04:26:04;1.63;;;0.90;;
25437;SDS011;13364;49.084;9.978;2023-04-24T04:28:47;2.65;;;1.10;;
25437;SDS011;13364;49.084;9.978;2023-04-24T04:31:15;1.05;;;0.90;;
25437;SDS011;13364;49.084;9.978;2023-04-24T04:33:42;3.78;;;1.27;;
25437;SDS011;13364;49.084;9.978;2023-04-24T04:36:09;3.47;;;0.82;;
25437;SDS011;13364;49.084;9.978;2023-04-24T04:38:41;1.13;;;0.80;;
25437;SDS011;13364;49.084;9.978;2023-04-24T04:41:47;3.17;;;1.00;;
25437;SDS011;13364;49.084;9.978;2023-04-24T04:44:17;2.40;;;1.10;;
25437;SDS011;13364;49.084;9.978;2023-04-24T04:46:44;1.90;;;0.85;;
25437;SDS011;13364;49.084;9.978;2023-04-24T04:49:24;1.45;;;0.80;;
25437;SDS011;13364;49.084;9.978;2023-04-24T04:51:51;1.73;;;1.02;;
25437;SDS011;13364;49.084;9.978;2023-04-24T04:54:19;1.30;;;0.90;;
25437;SDS011;13364;49.084;9.978;2023-04-24T04:56:46;1.13;;;0.90;;
25437;SDS011;13364;49.084;9.978;2023-04-24T04:59:14;3.10;;;1.50;;
25437;SDS011;13364;49.084;9.978;2023-04-24T05:01:41;2.40;;;2.20;;
25437;SDS011;13364;49.084;9.978;2023-04-24T05:04:10;3.05;;;1.60;;
25437;SDS011;13364;49.084;9.978;2023-04-24T05:06:37;2.72;;;1.17;;
25437;SDS011;13364;49.084;9.978;2023-04-24T05:09:05;2.53;;;1.10;;
25437;SDS011;13364;49.084;9.978;2023-04-24T05:11:48;5.25;;;1.10;;
25437;SDS011;13364;49.084;9.978;2023-04-24T05:14:15;1.15;;;0.98;;
25437;SDS011;13364;49.084;9.978;2023-04-24T05:16:44;4.63;;;1.00;;
25437;SDS011;13364;49.084;9.978;2023-04-24T05:19:13;1.70;;;1.20;;
25437;SDS011;13364;49.084;9.978;2023-04-24T05:21:41;3.45;;;1.25;;
25437;SDS011;13364;49.084;9.978;2023-04-24T05:24:09;1.42;;;1.05;;
25437;SDS011;13364;49.084;9.978;2023-04-24T05:26:58;1.13;;;0.85;;
25437;SDS011;13364;49.084;9.978;2023-04-24T05:29:32;3.58;;;1.10;;
25437;SDS011;13364;49.084;9.978;2023-04-24T05:31:59;2.17;;;1.10;;
25437;SDS011;13364;49.084;9.978;2023-04-24T05:34:29;1.45;;;0.93;;
25437;SDS011;13364;49.084;9.978;2023-04-24T05:36:56;2.22;;;1.20;;
25437;SDS011;13364;49.084;9.978;2023-04-24T05:39:24;6.28;;;1.27;;
25437;SDS011;13364;49.084;9.978;2023-04-24T05:41:52;2.65;;;1.17;;
25437;SDS011;13364;49.084;9.978;2023-04-24T05:44:19;1.63;;;1.30;;
25437;SDS011;13364;49.084;9.978;2023-04-24T05:46:47;1.35;;;1.25;;
25437;SDS011;13364;49.084;9.978;2023-04-24T05:49:15;1.95;;;1.17;;
25437;SDS011;13364;49.084;9.978;2023-04-24T05:51:42;1.80;;;1.10;;
25437;SDS011;13364;49.084;9.978;2023-04-24T05:54:09;1.83;;;1.50;;
25437;SDS011;13364;49.084;9.978;2023-04-24T05:56:39;4.07;;;1.50;;
25437;SDS011;13364;49.084;9.978;2023-04-24T05:59:10;2.95;;;1.33;;
25437;SDS011;13364;49.084;9.978;2023-04-24T06:01:37;1.40;;;1.25;;
25437;SDS011;13364;49.084;9.978;2023-04-24T06:04:10;3.65;;;1.33;;
25437;SDS011;13364;49.084;9.978;2023-04-24T06:06:40;1.45;;;1.30;;
25437;SDS011;13364;49.084;9.978;2023-04-24T06:09:08;2.75;;;1.73;;
25437;SDS011;13364;49.084;9.978;2023-04-24T06:11:35;1.45;;;1.17;;
25437;SDS011;13364;49.084;9.978;2023-04-24T06:14:02;1.70;;;1.60;;
25437;SDS011;13364;49.084;9.978;2023-04-24T06:16:55;1.95;;;1.65;;
25437;SDS011;13364;49.084;9.978;2023-04-24T06:19:34;3.55;;;1.35;;
25437;SDS011;13364;49.084;9.978;2023-04-24T06:22:01;2.38;;;1.60;;
25437;SDS011;13364;49.084;9.978;2023-04-24T06:24:29;1.60;;;1.38;;
25437;SDS011;13364;49.084;9.978;2023-04-24T06:26:57;1.60;;;1.50;;
25437;SDS011;13364;49.084;9.978;2023-04-24T06:29:26;2.30;;;1.60;;
25437;SDS011;13364;49.084;9.978;2023-04-24T06:31:53;2.80;;;1.88;;
25437;SDS011;13364;49.084;9.978;2023-04-24T06:34:20;2.95;;;1.88;;
25437;SDS011;13364;49.084;9.978;2023-04-24T06:36:47;3.20;;;1.90;;
25437;SDS011;13364;49.084;9.978;2023-04-24T06:39:14;4.70;;;2.15;;
25437;SDS011;13364;49.084;9.978;2023-04-24T06:41:41;4.22;;;2.35;;
25437;SDS011;13364;49.084;9.978;2023-04-24T06:44:18;2.95;;;1.95;;
25437;SDS011;13364;49.084;9.978;2023-04-24T06:46:45;2.70;;;2.17;;
25437;SDS011;13364;49.084;9.978;2023-04-24T06:49:12;3.58;;;2.35;;
25437;SDS011;13364;49.084;9.978;2023-04-24T06:51:42;2.83;;;2.28;;
25437;SDS011;13364;49.084;9.978;2023-04-24T06:54:09;4.18;;;3.08;;
25437;SDS011;13364;49.084;9.978;2023-04-24T06:56:37;4.95;;;3.00;;
25437;SDS011;13364;49.084;9.978;2023-04-24T06:59:09;3.78;;;2.55;;
25437;SDS011;13364;49.084;9.978;2023-04-24T07:01:36;3.92;;;2.92;;
25437;SDS011;13364;49.084;9.978;2023-04-24T07:04:03;2.90;;;2.60;;
25437;SDS011;13364;49.084;9.978;2023-04-24T07:06:31;4.57;;;3.22;;
25437;SDS011;13364;49.084;9.978;2023-04-24T07:08:58;4.50;;;3.13;;
25437;SDS011;13364;49.084;9.978;2023-04-24T07:11:26;3.67;;;2.70;;
25437;SDS011;13364;49.084;9.978;2023-04-24T07:13:55;2.27;;;1.70;;
25437;SDS011;13364;49.084;9.978;2023-04-24T07:16:22;4.15;;;2.60;;
25437;SDS011;13364;49.084;9.978;2023-04-24T07:18:49;3.88;;;2.53;;
25437;SDS011;13364;49.084;9.978;2023-04-24T07:21:16;4.82;;;2.65;;
25437;SDS011;13364;49.084;9.978;2023-04-24T07:23:43;4.63;;;2.50;;
25437;SDS011;13364;49.084;9.978;2023-04-24T07:26:10;3.20;;;2.75;;
25437;SDS011;13364;49.084;9.978;2023-04-24T07:28:38;5.63;;;2.58;;
25437;SDS011;13364;49.084;9.978;2023-04-24T07:31:05;3.85;;;2.03;;
25437;SDS011;13364;49.084;9.978;2023-04-24T07:33:32;3.95;;;2.17;;
25437;SDS011;13364;49.084;9.978;2023-04-24T07:35:59;5.32;;;3.38;;
25437;SDS011;13364;49.084;9.978;2023-04-24T07:38:26;3.75;;;3.15;;
25437;SDS011;13364;49.084;9.978;2023-04-24T07:40:55;8.17;;;3.17;;
25437;SDS011;13364;49.084;9.978;2023-04-24T07:43:22;5.72;;;3.20;;
25437;SDS011;13364;49.084;9.978;2023-04-24T07:45:50;3.10;;;2.53;;
25437;SDS011;13364;49.084;9.978;2023-04-24T07:48:17;3.33;;;2.28;;
25437;SDS011;13364;49.084;9.978;2023-04-24T07:50:44;3.97;;;2.50;;
25437;SDS011;13364;49.084;9.978;2023-04-24T07:53:11;3.15;;;2.50;;
25437;SDS011;13364;49.084;9.978;2023-04-24T07:58:59;3.42;;;2.53;;
25437;SDS011;13364;49.084;9.978;2023-04-24T08:01:27;2.97;;;2.00;;
25437;SDS011;13364;49.084;9.978;2023-04-24T08:03:54;3.20;;;2.53;;
25437;SDS011;13364;49.084;9.978;2023-04-24T08:06:22;6.45;;;2.22;;
25437;SDS011;13364;49.084;9.978;2023-04-24T08:08:49;3.88;;;2.65;;
25437;SDS011;13364;49.084;9.978;2023-04-24T08:11:17;4.03;;;2.88;;
25437;SDS011;13364;49.084;9.978;2023-04-24T08:13:44;2.85;;;2.55;;
25437;SDS011;13364;49.084;9.978;2023-04-24T08:16:11;3.58;;;1.90;;
25437;SDS011;13364;49.084;9.978;2023-04-24T08:18:38;3.83;;;2.13;;
25437;SDS011;13364;49.084;9.978;2023-04-24T08:21:05;4.30;;;2.55;;
25437;SDS011;13364;49.084;9.978;2023-04-24T08:23:32;2.72;;;2.53;;
25437;SDS011;13364;49.084;9.978;2023-04-24T08:26:00;6.32;;;2.30;;
25437;SDS011;13364;49.084;9.978;2023-04-24T08:28:27;2.30;;;1.90;;
25437;SDS011;13364;49.084;9.978;2023-04-24T08:30:54;2.67;;;2.08;;
25437;SDS011;13364;49.084;9.978;2023-04-24T08:33:22;1.98;;;1.52;;
25437;SDS011;13364;49.084;9.978;2023-04-24T08:35:50;3.08;;;2.22;;
25437;SDS011;13364;49.084;9.978;2023-04-24T08:38:18;3.22;;;2.20;;
25437;SDS011;13364;49.084;9.978;2023-04-24T08:40:47;5.90;;;1.75;;
25437;SDS011;13364;49.084;9.978;2023-04-24T08:43:16;2.42;;;1.95;;
25437;SDS011;13364;49.084;9.978;2023-04-24T08:45:43;2.95;;;1.92;;
25437;SDS011;13364;49.084;9.978;2023-04-24T08:48:10;3.42;;;2.00;;
25437;SDS011;13364;49.084;9.978;2023-04-24T08:50:55;2.05;;;1.70;;
25437;SDS011;13364;49.084;9.978;2023-04-24T08:53:24;2.13;;;1.88;;
25437;SDS011;13364;49.084;9.978;2023-04-24T08:55:52;3.03;;;1.73;;
25437;SDS011;13364;49.084;9.978;2023-04-24T09:03:42;2.28;;;1.42;;
25437;SDS011;13364;49.084;9.978;2023-04-24T09:06:10;1.73;;;1.60;;
25437;SDS011;13364;49.084;9.978;2023-04-24T09:08:38;3.95;;;1.63;;
25437;SDS011;13364;49.084;9.978;2023-04-24T09:11:07;2.95;;;1.25;;
25437;SDS011;13364;49.084;9.978;2023-04-24T09:13:35;1.73;;;1.30;;
25437;SDS011;13364;49.084;9.978;2023-04-24T09:16:03;0.80;;;0.80;;
25437;SDS011;13364;49.084;9.978;2023-04-24T09:18:30;1.42;;;1.33;;
25437;SDS011;13364;49.084;9.978;2023-04-24T09:20:58;2.65;;;1.67;;
25437;SDS011;13364;49.084;9.978;2023-04-24T09:23:30;1.83;;;1.20;;
25437;SDS011;13364;49.084;9.978;2023-04-24T09:28:38;1.20;;;1.10;;
25437;SDS011;13364;49.084;9.978;2023-04-24T09:36:41;0.90;;;0.77;;
25437;SDS011;13364;49.084;9.978;2023-04-24T09:39:10;1.67;;;0.63;;
25437;SDS011;13364;49.084;9.978;2023-04-24T09:41:43;3.17;;;0.90;;
25437;SDS011;13364;49.084;9.978;2023-04-24T09:44:20;1.95;;;1.20;;
25437;SDS011;13364;49.084;9.978;2023-04-24T09:46:59;5.22;;;1.13;;
25437;SDS011;13364;49.084;9.978;2023-04-24T09:49:27;1.67;;;1.15;;
25437;SDS011;13364;49.084;9.978;2023-04-24T09:52:02;0.65;;;0.65;;
25437;SDS011;13364;49.084;9.978;2023-04-24T09:54:33;3.92;;;1.05;;
25437;SDS011;13364;49.084;9.978;2023-04-24T09:57:04;0.70;;;0.70;;
25437;SDS011;13364;49.084;9.978;2023-04-24T09:59:33;1.48;;;0.80;;
25437;SDS011;13364;49.084;9.978;2023-04-24T10:02:02;1.42;;;1.10;;
25437;SDS011;13364;49.084;9.978;2023-04-24T10:08:10;3.33;;;1.20;;
25437;SDS011;13364;49.084;9.978;2023-04-24T10:10:42;1.33;;;1.20;;
25437;SDS011;13364;49.084;9.978;2023-04-24T10:13:12;3.00;;;1.20;;
25437;SDS011;13364;49.084;9.978;2023-04-24T10:15:40;2.63;;;1.05;;
25437;SDS011;13364;49.084;9.978;2023-04-24T10:18:09;4.88;;;0.90;;
25437;SDS011;13364;49.084;9.978;2023-04-24T10:20:38;1.67;;;0.90;;
25437;SDS011;13364;49.084;9.978;2023-04-24T10:23:06;0.80;;;0.80;;
25437;SDS011;13364;49.084;9.978;2023-04-24T10:25:34;1.92;;;0.80;;
25437;SDS011;13364;49.084;9.978;2023-04-24T10:28:03;1.25;;;0.93;;
25437;SDS011;13364;49.084;9.978;2023-04-24T10:30:33;1.00;;;0.90;;
25437;SDS011;13364;49.084;9.978;2023-04-24T10:33:04;2.75;;;0.95;;
25437;SDS011;13364;49.084;9.978;2023-04-24T10:35:35;3.13;;;0.93;;
25437;SDS011;13364;49.084;9.978;2023-04-24T10:38:23;1.20;;;1.10;;
25437;SDS011;13364;49.084;9.978;2023-04-24T10:40:57;1.30;;;1.10;;
25437;SDS011;13364;49.084;9.978;2023-04-24T10:43:34;3.70;;;1.00;;
25437;SDS011;13364;49.084;9.978;2023-04-24T10:46:02;1.77;;;1.30;;
25437;SDS011;13364;49.084;9.978;2023-04-24T10:48:31;1.90;;;1.17;;
25437;SDS011;13364;49.084;9.978;2023-04-24T10:50:58;1.00;;;1.00;;
25437;SDS011;13364;49.084;9.978;2023-04-24T10:53:29;1.95;;;1.10;;
25437;SDS011;13364;49.084;9.978;2023-04-24T10:58:38;1.30;;;1.20;;
25437;SDS011;13364;49.084;9.978;2023-04-24T11:01:25;1.58;;;1.25;;
25437;SDS011;13364;49.084;9.978;2023-04-24T11:04:00;3.15;;;1.38;;
25437;SDS011;13364;49.084;9.978;2023-04-24T11:06:33;1.63;;;1.38;;
25437;SDS011;13364;49.084;9.978;2023-04-24T11:11:34;2.60;;;1.42;;
25437;SDS011;13364;49.084;9.978;2023-04-24T11:14:04;3.15;;;1.73;;
25437;SDS011;13364;49.084;9.978;2023-04-24T11:16:43;1.73;;;1.60;;
25437;SDS011;13364;49.084;9.978;2023-04-24T11:21:46;2.28;;;1.20;;
25437;SDS011;13364;49.084;9.978;2023-04-24T11:24:49;2.00;;;1.50;;
25437;SDS011;13364;49.084;9.978;2023-04-24T11:30:17;1.67;;;1.20;;
25437;SDS011;13364;49.084;9.978;2023-04-24T11:32:47;2.28;;;1.80;;
25437;SDS011;13364;49.084;9.978;2023-04-24T11:35:20;3.70;;;2.00;;
25437;SDS011;13364;49.084;9.978;2023-04-24T11:37:51;3.85;;;1.80;;
25437;SDS011;13364;49.084;9.978;2023-04-24T11:40:39;2.08;;;1.80;;
25437;SDS011;13364;49.084;9.978;2023-04-24T11:43:07;3.05;;;2.10;;
25437;SDS011;13364;49.084;9.978;2023-04-24T11:45:36;2.78;;;2.30;;
25437;SDS011;13364;49.084;9.978;2023-04-24T11:48:03;3.85;;;2.05;;
25437;SDS011;13364;49.084;9.978;2023-04-24T11:50:30;2.42;;;1.80;;
25437;SDS011;13364;49.084;9.978;2023-04-24T11:52:57;3.67;;;2.30;;
25437;SDS011;13364;49.084;9.978;2023-04-24T11:55:27;1.90;;;1.60;;
25437;SDS011;13364;49.084;9.978;2023-04-24T11:57:56;4.15;;;2.30;;
25437;SDS011;13364;49.084;9.978;2023-04-24T12:00:31;3.72;;;2.22;;
25437;SDS011;13364;49.084;9.978;2023-04-24T12:06:05;3.35;;;2.25;;
25437;SDS011;13364;49.084;9.978;2023-04-24T12:08:34;2.40;;;1.77;;
25437;SDS011;13364;49.084;9.978;2023-04-24T12:11:04;2.60;;;2.20;;
25437;SDS011;13364;49.084;9.978;2023-04-24T12:13:36;2.38;;;2.05;;
25437;SDS011;13364;49.084;9.978;2023-04-24T12:18:58;2.22;;;2.00;;
25437;SDS011;13364;49.084;9.978;2023-04-24T12:21:24;2.00;;;1.80;;
25437;SDS011;13364;49.084;9.978;2023-04-24T12:23:56;2.10;;;1.90;;
25437;SDS011;13364;49.084;9.978;2023-04-24T12:26:23;2.65;;;1.77;;
25437;SDS011;13364;49.084;9.978;2023-04-24T12:28:50;2.88;;;1.98;;
25437;SDS011;13364;49.084;9.978;2023-04-24T12:31:17;3.53;;;2.17;;
25437;SDS011;13364;49.084;9.978;2023-04-24T12:33:47;4.30;;;2.40;;
25437;SDS011;13364;49.084;9.978;2023-04-24T12:36:14;3.75;;;2.25;;
25437;SDS011;13364;49.084;9.978;2023-04-24T12:38:43;3.35;;;2.10;;
25437;SDS011;13364;49.084;9.978;2023-04-24T12:41:13;6.07;;;2.47;;
25437;SDS011;13364;49.084;9.978;2023-04-24T12:43:53;2.28;;;1.88;;
25437;SDS011;13364;49.084;9.978;2023-04-24T12:46:21;3.95;;;2.72;;
25437;SDS011;13364;49.084;9.978;2023-04-24T12:48:48;5.70;;;1.95;;
25437;SDS011;13364;49.084;9.978;2023-04-24T12:51:15;5.00;;;2.03;;
25437;SDS011;13364;49.084;9.978;2023-04-24T12:53:42;3.03;;;2.28;;
25437;SDS011;13364;49.084;9.978;2023-04-24T12:56:10;4.07;;;2.13;;
25437;SDS011;13364;49.084;9.978;2023-04-24T12:58:37;4.45;;;2.60;;
25437;SDS011;13364;49.084;9.978;2023-04-24T13:01:04;5.28;;;2.65;;
25437;SDS011;13364;49.084;9.978;2023-04-24T13:03:31;3.33;;;2.50;;
25437;SDS011;13364;49.084;9.978;2023-04-24T13:05:58;2.28;;;2.08;;
25437;SDS011;13364;49.084;9.978;2023-04-24T13:08:25;3.45;;;2.22;;
25437;SDS011;13364;49.084;9.978;2023-04-24T13:10:52;2.35;;;1.63;;
25437;SDS011;13364;49.084;9.978;2023-04-24T13:13:20;4.85;;;2.50;;
25437;SDS011;13364;49.084;9.978;2023-04-24T13:15:47;3.20;;;2.30;;
25437;SDS011;13364;49.084;9.978;2023-04-24T13:18:14;3.35;;;2.60;;
25437;SDS011;13364;49.084;9.978;2023-04-24T13:20:41;6.18;;;2.60;;
25437;SDS011;13364;49.084;9.978;2023-04-24T13:23:08;4.97;;;2.63;;
25437;SDS011;13364;49.084;9.978;2023-04-24T13:25:36;3.38;;;2.75;;
25437;SDS011;13364;49.084;9.978;2023-04-24T13:28:05;3.53;;;2.22;;
25437;SDS011;13364;49.084;9.978;2023-04-24T13:30:32;3.10;;;2.70;;
25437;SDS011;13364;49.084;9.978;2023-04-24T13:32:59;6.13;;;3.20;;
25437;SDS011;13364;49.084;9.978;2023-04-24T13:35:26;5.25;;;3.50;;
25437;SDS011;13364;49.084;9.978;2023-04-24T13:37:53;5.10;;;3.55;;
25437;SDS011;13364;49.084;9.978;2023-04-24T13:40:20;2.65;;;2.40;;
25437;SDS011;13364;49.084;9.978;2023-04-24T13:42:47;3.95;;;2.30;;
25437;SDS011;13364;49.084;9.978;2023-04-24T13:45:14;3.17;;;2.88;;
25437;SDS011;13364;49.084;9.978;2023-04-24T13:47:50;2.63;;;2.17;;
25437;SDS011;13364;49.084;9.978;2023-04-24T13:50:20;2.97;;;2.45;;
25437;SDS011;13364;49.084;9.978;2023-04-24T13:56:25;4.15;;;2.80;;
25437;SDS011;13364;49.084;9.978;2023-04-24T13:58:52;3.17;;;2.88;;
25437;SDS011;13364;49.084;9.978;2023-04-24T14:01:22;2.20;;;1.65;;
25437;SDS011;13364;49.084;9.978;2023-04-24T14:03:52;3.10;;;2.80;;
25437;SDS011;13364;49.084;9.978;2023-04-24T14:06:20;4.50;;;3.00;;
25437;SDS011;13364;49.084;9.978;2023-04-24T14:08:47;3.65;;;2.78;;
25437;SDS011;13364;49.084;9.978;2023-04-24T14:11:14;3.58;;;3.10;;
25437;SDS011;13364;49.084;9.978;2023-04-24T14:13:41;2.83;;;2.63;;
25437;SDS011;13364;49.084;9.978;2023-04-24T14:16:10;3.28;;;2.95;;
25437;SDS011;13364;49.084;9.978;2023-04-24T14:18:37;2.92;;;2.47;;
25437;SDS011;13364;49.084;9.978;2023-04-24T14:21:04;3.80;;;2.92;;
25437;SDS011;13364;49.084;9.978;2023-04-24T14:23:31;4.25;;;2.80;;
25437;SDS011;13364;49.084;9.978;2023-04-24T14:25:58;4.20;;;3.03;;
25437;SDS011;13364;49.084;9.978;2023-04-24T14:28:26;5.68;;;3.20;;
25437;SDS011;13364;49.084;9.978;2023-04-24T14:30:53;3.75;;;2.13;;
25437;SDS011;13364;49.084;9.978;2023-04-24T14:33:20;7.55;;;3.00;;
25437;SDS011;13364;49.084;9.978;2023-04-24T14:35:47;4.00;;;2.80;;
25437;SDS011;13364;49.084;9.978;2023-04-24T14:38:14;4.05;;;2.90;;
25437;SDS011;13364;49.084;9.978;2023-04-24T14:40:41;4.85;;;3.30;;
25437;SDS011;13364;49.084;9.978;2023-04-24T14:43:11;3.40;;;3.10;;
25437;SDS011;13364;49.084;9.978;2023-04-24T14:45:38;3.47;;;3.00;;
25437;SDS011;13364;49.084;9.978;2023-04-24T14:48:07;4.03;;;2.93;;
25437;SDS011;13364;49.084;9.978;2023-04-24T14:50:35;3.60;;;2.97;;
25437;SDS011;13364;49.084;9.978;2023-04-24T14:53:02;3.58;;;2.90;;
25437;SDS011;13364;49.084;9.978;2023-04-24T14:55:30;6.80;;;3.17;;
25437;SDS011;13364;49.084;9.978;2023-04-24T14:57:58;3.55;;;2.53;;
25437;SDS011;13364;49.084;9.978;2023-04-24T15:00:25;2.88;;;2.50;;
25437;SDS011;13364;49.084;9.978;2023-04-24T15:02:52;4.75;;;2.58;;
25437;SDS011;13364;49.084;9.978;2023-04-24T15:05:19;3.20;;;2.40;;
25437;SDS011;13364;49.084;9.978;2023-04-24T15:07:46;3.30;;;2.35;;
25437;SDS011;13364;49.084;9.978;2023-04-24T15:10:13;4.00;;;2.97;;
25437;SDS011;13364;49.084;9.978;2023-04-24T15:12:40;4.18;;;2.63;;
25437;SDS011;13364;49.084;9.978;2023-04-24T15:15:07;2.67;;;2.13;;
25437;SDS011;13364;49.084;9.978;2023-04-24T15:17:35;3.33;;;2.55;;
25437;SDS011;13364;49.084;9.978;2023-04-24T15:24:08;6.65;;;2.70;;
25437;SDS011;13364;49.084;9.978;2023-04-24T15:26:35;1.90;;;1.67;;
25437;SDS011;13364;49.084;9.978;2023-04-24T15:29:02;4.03;;;2.70;;
25437;SDS011;13364;49.084;9.978;2023-04-24T15:31:29;2.88;;;2.40;;
25437;SDS011;13364;49.084;9.978;2023-04-24T15:33:56;4.22;;;2.13;;
25437;SDS011;13364;49.084;9.978;2023-04-24T15:36:23;3.22;;;2.17;;
25437;SDS011;13364;49.084;9.978;2023-04-24T15:38:50;3.88;;;2.38;;
25437;SDS011;13364;49.084;9.978;2023-04-24T15:41:17;4.10;;;2.20;;
25437;SDS011;13364;49.084;9.978;2023-04-24T15:43:44;4.65;;;2.40;;